createdAt,value
2019-03-28T00:01:14.657Z,0.23
2019-03-28T00:03:44.386Z,0.26
2019-03-28T00:06:14.813Z,0.30
2019-03-28T00:08:45.467Z,0.27
2019-03-28T00:11:16.192Z,0.21
2019-03-28T00:13:46.947Z,0.22
2019-03-28T00:16:17.730Z,0.16
2019-03-28T00:18:48.351Z,0.12
2019-03-28T00:21:19.233Z,0.17
2019-03-28T00:23:57.563Z,0.17
2019-03-28T00:26:30.426Z,0.11
2019-03-28T00:29:00.394Z,0.14
2019-03-28T00:31:31.123Z,0.15
2019-03-28T00:34:02.005Z,0.11
2019-03-28T00:36:32.757Z,0.12
2019-03-28T00:39:03.819Z,0.12
2019-03-28T00:41:34.237Z,0.08
2019-03-28T00:44:05.019Z,0.00
2019-03-28T00:46:35.775Z,-0.03
2019-03-28T00:49:06.295Z,0.02
2019-03-28T00:51:38.406Z,0.02
2019-03-28T00:54:09.030Z,0.02
2019-03-28T00:56:46.912Z,-0.02
2019-03-28T00:59:11.998Z,-0.02
2019-03-28T01:01:42.651Z,-0.02
2019-03-28T01:04:13.273Z,-0.02
2019-03-28T01:06:44.159Z,-0.01
2019-03-28T01:09:14.914Z,-0.03
2019-03-28T01:11:45.355Z,-0.04
2019-03-28T01:14:16.008Z,-0.12
2019-03-28T01:16:46.865Z,-0.03
2019-03-28T01:19:17.490Z,-0.04
2019-03-28T01:21:48.273Z,-0.01
2019-03-28T01:24:18.223Z,0.03
2019-03-28T01:26:57.074Z,0.04
2019-03-28T01:29:20.810Z,-0.01
2019-03-28T01:31:51.593Z,-0.03
2019-03-28T01:34:22.342Z,0.03
2019-03-28T01:36:53.074Z,-0.03
2019-03-28T01:39:23.854Z,-0.03
2019-03-28T01:41:54.506Z,-0.05
2019-03-28T01:44:25.262Z,-0.08
2019-03-28T01:46:56.115Z,-0.11
2019-03-28T01:49:26.868Z,-0.15
2019-03-28T01:51:58.644Z,-0.12
2019-03-28T01:54:29.331Z,-0.10
2019-03-28T01:57:10.339Z,-0.13
2019-03-28T01:59:32.236Z,-0.12
2019-03-28T02:02:02.990Z,-0.12
2019-03-28T02:04:33.614Z,-0.04
2019-03-28T02:07:10.123Z,0.02
2019-03-28T02:09:40.698Z,0.01
2019-03-28T02:12:11.535Z,0.09
2019-03-28T02:14:42.151Z,0.12
2019-03-28T02:17:13.137Z,0.14
2019-03-28T02:19:43.995Z,0.18
2019-03-28T02:22:14.923Z,0.20
2019-03-28T02:24:45.706Z,0.21
2019-03-28T02:27:23.914Z,0.23
2019-03-28T02:29:48.617Z,0.20
2019-03-28T02:32:19.485Z,0.17
2019-03-28T02:34:50.254Z,0.12
2019-03-28T02:37:20.916Z,0.08
2019-03-28T02:39:51.662Z,0.06
2019-03-28T02:42:22.488Z,0.00
2019-03-28T02:44:53.152Z,0.05
2019-03-28T02:47:23.328Z,0.08
2019-03-28T02:49:53.858Z,0.07
2019-03-28T02:52:25.739Z,0.06
2019-03-28T02:54:56.053Z,0.06
2019-03-28T02:57:40.147Z,0.12
2019-03-28T02:59:58.992Z,0.05
2019-03-28T03:02:29.881Z,0.01
2019-03-28T03:05:00.518Z,0.02
2019-03-28T03:07:30.685Z,-0.04
2019-03-28T03:10:01.224Z,-0.07
2019-03-28T03:12:31.971Z,-0.07
2019-03-28T03:15:03.600Z,-0.06
2019-03-28T03:17:34.708Z,-0.05
2019-03-28T03:20:06.478Z,-0.06
2019-03-28T03:22:37.242Z,-0.01
2019-03-28T03:25:08.425Z,0.00
2019-03-28T03:27:38.950Z,0.02
2019-03-28T03:30:09.827Z,0.02
2019-03-28T03:32:40.473Z,0.08
2019-03-28T03:35:10.198Z,0.05
2019-03-28T03:37:40.610Z,0.04
2019-03-28T03:40:11.361Z,0.06
2019-03-28T03:42:42.141Z,0.10
2019-03-28T03:45:12.996Z,0.12
2019-03-28T03:47:43.854Z,0.21
2019-03-28T03:50:26.375Z,0.31
2019-03-28T03:52:58.161Z,0.32
2019-03-28T03:55:28.873Z,0.36
2019-03-28T03:58:14.536Z,0.39
2019-03-28T04:00:35.021Z,0.42
2019-03-28T04:03:05.893Z,0.47
2019-03-28T04:05:36.646Z,0.53
2019-03-28T04:08:07.403Z,0.62
2019-03-28T04:10:38.257Z,0.66
2019-03-28T04:13:09.097Z,0.70
2019-03-28T04:15:39.953Z,0.77
2019-03-28T04:18:10.600Z,0.79
2019-03-28T04:20:41.574Z,0.84
2019-03-28T04:23:12.319Z,0.94
2019-03-28T04:25:43.070Z,1.01
2019-03-28T04:28:30.062Z,1.03
2019-03-28T04:30:46.422Z,1.05
2019-03-28T04:33:17.175Z,1.14
2019-03-28T04:35:48.695Z,1.15
2019-03-28T04:38:19.704Z,1.21
2019-03-28T04:40:50.560Z,1.27
2019-03-28T04:43:21.324Z,1.33
2019-03-28T04:45:52.065Z,1.25
2019-03-28T04:48:22.819Z,1.39
2019-03-28T04:50:53.567Z,1.27
2019-03-28T04:53:25.453Z,1.30
2019-03-28T04:55:56.203Z,1.28
2019-03-28T04:58:26.960Z,1.21
2019-03-28T05:00:57.814Z,1.23
2019-03-28T05:03:28.671Z,1.22
2019-03-28T05:05:59.426Z,1.37
2019-03-28T05:08:30.279Z,1.35
2019-03-28T05:11:01.027Z,1.27
2019-03-28T05:13:31.788Z,1.25
2019-03-28T05:16:02.546Z,1.37
2019-03-28T05:18:33.401Z,1.42
2019-03-28T05:21:04.161Z,1.44
2019-03-28T05:23:34.200Z,1.60
2019-03-28T05:26:04.743Z,1.52
2019-03-28T05:28:34.889Z,1.46
2019-03-28T05:31:05.530Z,1.53
2019-03-28T05:33:36.184Z,1.57
2019-03-28T05:36:07.040Z,1.64
2019-03-28T05:38:37.794Z,1.68
2019-03-28T05:41:08.645Z,1.55
2019-03-28T05:43:39.395Z,1.73
2019-03-28T05:46:10.262Z,1.70
2019-03-28T05:48:41.014Z,1.75
2019-03-28T05:51:11.665Z,2.03
2019-03-28T05:53:44.158Z,2.28
2019-03-28T05:56:14.974Z,2.20
2019-03-28T05:58:45.162Z,2.30
2019-03-28T06:01:15.696Z,2.24
2019-03-28T06:03:45.647Z,2.25
2019-03-28T06:06:16.283Z,2.37
2019-03-28T06:08:46.903Z,2.31
2019-03-28T06:11:17.480Z,2.29
2019-03-28T06:13:48.210Z,2.26
2019-03-28T06:16:19.090Z,2.07
2019-03-28T06:18:49.713Z,1.83
2019-03-28T06:21:19.686Z,1.73
2019-03-28T06:23:50.197Z,1.61
2019-03-28T06:26:20.167Z,1.61
2019-03-28T06:28:51.365Z,1.65
2019-03-28T06:31:22.050Z,1.60
2019-03-28T06:33:52.730Z,1.57
2019-03-28T06:36:23.380Z,1.59
2019-03-28T06:38:53.904Z,1.75
2019-03-28T06:41:23.989Z,1.89
2019-03-28T06:43:54.618Z,2.01
2019-03-28T06:46:24.576Z,2.03
2019-03-28T06:48:55.209Z,2.12
2019-03-28T06:51:25.064Z,2.06
2019-03-28T06:53:57.217Z,2.29
2019-03-28T06:56:27.775Z,2.29
2019-03-28T06:58:58.296Z,2.49
2019-03-28T07:01:28.266Z,2.22
2019-03-28T07:03:58.808Z,2.39
2019-03-28T07:06:28.750Z,2.39
2019-03-28T07:08:59.267Z,2.29
2019-03-28T07:11:29.352Z,2.67
2019-03-28T07:13:59.754Z,2.77
2019-03-28T07:16:29.721Z,2.93
2019-03-28T07:19:00.470Z,2.55
2019-03-28T07:21:30.423Z,2.89
2019-03-28T07:24:00.748Z,2.91
2019-03-28T07:26:30.815Z,2.85
2019-03-28T07:29:01.207Z,2.95
2019-03-28T07:31:31.176Z,2.95
2019-03-28T07:34:01.588Z,3.12
2019-03-28T07:36:31.674Z,3.42
2019-03-28T07:39:02.078Z,3.51
2019-03-28T07:41:32.165Z,3.35
2019-03-28T07:44:02.687Z,3.50
2019-03-28T07:46:33.311Z,3.43
2019-03-28T07:49:03.963Z,3.35
2019-03-28T07:51:34.345Z,2.74
2019-03-28T07:54:06.702Z,2.64
2019-03-28T07:56:37.379Z,2.95
2019-03-28T07:59:08.033Z,2.60
2019-03-28T08:01:38.244Z,2.67
2019-03-28T08:04:08.330Z,2.67
2019-03-28T08:06:49.182Z,2.61
2019-03-28T08:09:12.556Z,2.46
2019-03-28T08:11:43.137Z,2.65
2019-03-28T08:14:13.648Z,2.40
2019-03-28T08:16:43.520Z,2.15
2019-03-28T08:19:14.059Z,2.08
2019-03-28T08:21:44.119Z,1.97
2019-03-28T08:24:14.520Z,2.08
2019-03-28T08:26:45.550Z,2.12
2019-03-28T08:29:15.255Z,1.99
2019-03-28T08:31:47.250Z,2.16
2019-03-28T08:34:18.614Z,2.12
2019-03-28T08:36:49.337Z,2.01
2019-03-28T08:39:20.002Z,2.18
2019-03-28T08:41:50.957Z,2.44
2019-03-28T08:44:22.694Z,2.48
2019-03-28T08:46:52.864Z,2.75
2019-03-28T08:49:23.387Z,2.87
2019-03-28T08:51:53.471Z,3.15
2019-03-28T08:54:24.306Z,2.97
2019-03-28T08:56:54.650Z,3.13
2019-03-28T08:59:25.283Z,2.75
2019-03-28T09:01:55.260Z,3.01
2019-03-28T09:04:25.794Z,3.03
2019-03-28T09:06:56.439Z,3.19
2019-03-28T09:09:26.397Z,3.40
2019-03-28T09:11:56.926Z,3.59
2019-03-28T09:14:26.983Z,3.59
2019-03-28T09:16:57.510Z,3.59
2019-03-28T09:19:27.457Z,3.65
2019-03-28T09:21:59.021Z,3.88
2019-03-28T09:24:29.671Z,3.86
2019-03-28T09:27:00.325Z,3.70
2019-03-28T09:29:31.079Z,3.68
2019-03-28T09:32:01.034Z,3.80
2019-03-28T09:34:31.563Z,3.94
2019-03-28T09:37:02.221Z,3.37
2019-03-28T09:39:32.065Z,3.37
2019-03-28T09:42:02.600Z,3.22
2019-03-28T09:44:33.043Z,3.31
2019-03-28T09:47:03.101Z,3.42
2019-03-28T09:49:33.631Z,3.88
2019-03-28T09:52:03.691Z,3.76
2019-03-28T09:54:35.331Z,3.99
2019-03-28T09:57:06.097Z,3.90
2019-03-28T09:59:36.708Z,3.89
2019-03-28T10:02:06.588Z,4.10
2019-03-28T10:04:37.144Z,3.49
2019-03-28T10:07:07.654Z,3.57
2019-03-28T10:09:37.992Z,3.52
2019-03-28T10:12:08.779Z,3.61
2019-03-28T10:14:38.736Z,3.74
2019-03-28T10:17:09.263Z,3.41
2019-03-28T10:19:39.732Z,3.47
2019-03-28T10:22:10.260Z,3.43
2019-03-28T10:24:40.216Z,3.87
2019-03-28T10:27:10.747Z,3.74
2019-03-28T10:29:41.267Z,3.63
2019-03-28T10:32:11.509Z,3.90
2019-03-28T10:34:41.377Z,3.52
2019-03-28T10:37:11.900Z,3.60
2019-03-28T10:39:42.779Z,4.05
2019-03-28T10:42:13.430Z,4.27
2019-03-28T10:44:44.154Z,3.91
2019-03-28T10:47:14.239Z,3.95
2019-03-28T10:49:44.770Z,3.92
2019-03-28T10:52:15.120Z,4.15
2019-03-28T10:54:46.465Z,4.14
2019-03-28T10:57:29.360Z,4.77
2019-03-28T10:59:48.678Z,4.63
2019-03-28T11:02:18.660Z,4.33
2019-03-28T11:04:49.066Z,4.82
2019-03-28T11:07:19.146Z,5.19
2019-03-28T11:09:49.572Z,5.34
2019-03-28T11:12:20.225Z,5.67
2019-03-28T11:14:50.747Z,4.70
2019-03-28T11:17:21.758Z,4.87
2019-03-28T11:19:56.117Z,5.05
2019-03-28T11:22:26.590Z,5.57
2019-03-28T11:24:56.674Z,5.16
2019-03-28T11:27:27.204Z,5.11
2019-03-28T11:29:57.260Z,5.69
2019-03-28T11:32:27.793Z,5.61
2019-03-28T11:34:57.731Z,5.91
2019-03-28T11:37:28.521Z,5.78
2019-03-28T11:39:59.145Z,5.78
2019-03-28T11:42:29.539Z,5.93
2019-03-28T11:44:59.353Z,6.19
2019-03-28T11:47:29.497Z,6.06
2019-03-28T11:49:59.814Z,5.98
2019-03-28T11:52:29.982Z,5.74
2019-03-28T11:55:01.504Z,6.21
2019-03-28T11:57:32.260Z,6.04
2019-03-28T12:00:03.089Z,6.41
2019-03-28T12:02:33.331Z,7.10
2019-03-28T12:05:03.300Z,6.21
2019-03-28T12:07:33.844Z,5.38
2019-03-28T12:10:05.245Z,5.38
2019-03-28T12:12:35.456Z,6.25
2019-03-28T12:15:05.907Z,6.59
2019-03-28T12:17:36.218Z,6.30
2019-03-28T12:20:09.846Z,6.14
2019-03-28T12:22:40.386Z,6.24
2019-03-28T12:25:10.470Z,6.17
2019-03-28T12:27:41.000Z,6.47
2019-03-28T12:30:15.554Z,6.21
2019-03-28T12:32:44.451Z,6.41
2019-03-28T12:35:15.103Z,6.62
2019-03-28T12:37:45.625Z,6.97
2019-03-28T12:40:15.708Z,6.56
2019-03-28T12:42:46.109Z,6.95
2019-03-28T12:45:16.892Z,6.83
2019-03-28T12:47:47.645Z,6.99
2019-03-28T12:50:18.275Z,7.04
2019-03-28T12:52:50.776Z,6.97
2019-03-28T12:55:21.135Z,7.28
2019-03-28T12:57:51.191Z,6.72
2019-03-28T13:00:34.531Z,6.63
2019-03-28T13:03:04.849Z,6.68
2019-03-28T13:05:35.026Z,6.26
2019-03-28T13:08:05.719Z,5.70
2019-03-28T13:10:38.953Z,5.43
2019-03-28T13:13:09.021Z,5.57
2019-03-28T13:15:39.652Z,5.37
2019-03-28T13:18:10.371Z,5.24
2019-03-28T13:20:40.339Z,4.64
2019-03-28T13:23:10.883Z,4.11
2019-03-28T13:25:41.521Z,4.49
2019-03-28T13:28:12.187Z,4.78
2019-03-28T13:30:42.026Z,5.32
2019-03-28T13:33:12.560Z,5.91
2019-03-28T13:35:43.310Z,5.74
2019-03-28T13:38:13.963Z,5.33
2019-03-28T13:40:44.492Z,5.59
2019-03-28T13:43:14.574Z,5.07
2019-03-28T13:45:44.999Z,4.75
2019-03-28T13:48:15.436Z,4.34
2019-03-28T13:50:46.196Z,4.26
2019-03-28T13:53:16.731Z,4.36
2019-03-28T13:55:47.602Z,4.31
2019-03-28T13:58:18.255Z,4.36
2019-03-28T14:00:48.104Z,4.49
2019-03-28T14:03:18.638Z,4.52
2019-03-28T14:05:49.288Z,4.49
2019-03-28T14:08:19.940Z,4.48
2019-03-28T14:10:51.186Z,4.40
2019-03-28T14:13:23.428Z,4.37
2019-03-28T14:15:54.145Z,4.24
2019-03-28T14:18:24.207Z,4.25
2019-03-28T14:20:54.630Z,4.25
2019-03-28T14:23:25.365Z,4.16
2019-03-28T14:25:55.447Z,4.13
2019-03-28T14:28:26.074Z,4.16
2019-03-28T14:30:56.708Z,4.32
2019-03-28T14:33:27.448Z,4.67
2019-03-28T14:35:58.233Z,4.60
2019-03-28T14:38:29.097Z,4.50
2019-03-28T14:40:59.846Z,4.22
2019-03-28T14:43:30.496Z,3.96
2019-03-28T14:46:01.230Z,3.97
2019-03-28T14:48:31.886Z,3.96
2019-03-28T14:51:02.671Z,3.98
2019-03-28T14:53:33.306Z,4.07
2019-03-28T14:56:05.172Z,4.28
2019-03-28T14:58:36.039Z,4.46
2019-03-28T15:01:06.795Z,4.63
2019-03-28T15:03:37.548Z,4.76
2019-03-28T15:06:07.508Z,4.81
2019-03-28T15:08:39.670Z,4.87
2019-03-28T15:11:10.322Z,5.00
2019-03-28T15:13:40.579Z,5.05
2019-03-28T15:16:11.315Z,5.13
2019-03-28T15:18:41.269Z,5.16
2019-03-28T15:21:11.728Z,4.87
2019-03-28T15:23:42.045Z,3.81
2019-03-28T15:26:12.004Z,3.18
2019-03-28T15:28:44.913Z,2.85
2019-03-28T15:31:35.607Z,2.66
2019-03-28T15:34:17.236Z,2.65
2019-03-28T15:36:54.279Z,2.54
2019-03-28T15:39:33.892Z,2.54
2019-03-28T15:42:10.282Z,2.59
2019-03-28T15:44:40.850Z,2.59
2019-03-28T15:47:18.109Z,2.61
2019-03-28T15:49:58.297Z,2.62
2019-03-28T15:52:28.555Z,2.64
2019-03-28T15:54:58.617Z,2.64
2019-03-28T15:57:29.144Z,2.67
2019-03-28T15:59:59.682Z,2.69
2019-03-28T16:02:30.252Z,2.72
2019-03-28T16:05:00.414Z,2.64
2019-03-28T16:07:31.134Z,2.70
2019-03-28T16:10:01.198Z,2.63
2019-03-28T16:12:31.702Z,2.64
2019-03-28T16:15:01.678Z,2.52
2019-03-28T16:17:32.191Z,2.48
2019-03-28T16:20:03.117Z,2.41
2019-03-28T16:22:34.315Z,2.46
2019-03-28T16:25:07.405Z,2.47
2019-03-28T16:27:37.782Z,2.46
2019-03-28T16:30:09.951Z,2.39
2019-03-28T16:32:40.499Z,2.30
2019-03-28T16:35:11.265Z,2.26
2019-03-28T16:37:42.132Z,2.26
2019-03-28T16:40:11.975Z,2.25
2019-03-28T16:42:42.610Z,2.18
2019-03-28T16:45:13.366Z,2.10
2019-03-28T16:47:43.812Z,2.00
2019-03-28T16:50:14.683Z,1.88
2019-03-28T16:52:48.120Z,1.73
2019-03-28T16:55:26.209Z,1.61
2019-03-28T16:57:50.714Z,1.55
2019-03-28T17:00:22.903Z,1.50
2019-03-28T17:02:53.349Z,1.45
2019-03-28T17:05:24.104Z,1.47
2019-03-28T17:07:54.737Z,1.39
2019-03-28T17:10:42.995Z,1.37
2019-03-28T17:13:13.551Z,1.37
2019-03-28T17:15:44.296Z,1.23
2019-03-28T17:18:18.660Z,1.14
2019-03-28T17:20:51.926Z,1.06
2019-03-28T17:23:22.702Z,0.94
2019-03-28T17:25:53.230Z,0.92
2019-03-28T17:28:24.105Z,0.78
2019-03-28T17:31:03.069Z,0.75
2019-03-28T17:33:47.950Z,0.64
2019-03-28T17:36:18.847Z,0.48
2019-03-28T17:38:49.515Z,0.38
2019-03-28T17:41:20.256Z,0.28
2019-03-28T17:43:51.242Z,0.17
2019-03-28T17:46:20.973Z,0.16
2019-03-28T17:48:57.584Z,0.13
2019-03-28T17:51:27.768Z,0.14
2019-03-28T17:53:58.746Z,0.06
2019-03-28T17:56:28.385Z,0.14
2019-03-28T17:59:00.253Z,0.05
2019-03-28T18:01:31.111Z,-0.10
2019-03-28T18:04:01.845Z,-0.08
2019-03-28T18:06:32.238Z,-0.12
2019-03-28T18:09:03.291Z,-0.13
2019-03-28T18:11:33.716Z,-0.15
2019-03-28T18:14:05.065Z,-0.18
2019-03-28T18:16:35.938Z,-0.21
2019-03-28T18:19:05.793Z,-0.18
2019-03-28T18:21:36.203Z,-0.17
2019-03-28T18:24:07.080Z,-0.25
2019-03-28T18:26:37.831Z,-0.24
2019-03-28T18:29:08.591Z,-0.28
2019-03-28T18:31:49.735Z,-0.26
2019-03-28T18:34:12.507Z,-0.33
2019-03-28T18:36:47.283Z,-0.39
2019-03-28T18:39:17.205Z,-0.42
2019-03-28T18:41:47.960Z,-0.44
2019-03-28T18:44:18.507Z,-0.38
2019-03-28T18:46:49.384Z,-0.40
2019-03-28T18:49:20.136Z,-0.44
2019-03-28T18:51:51.243Z,-0.62
2019-03-28T18:54:21.731Z,-0.65
2019-03-28T18:56:52.488Z,-0.78
2019-03-28T18:59:24.379Z,-0.93
2019-03-28T19:01:55.138Z,-0.99
2019-03-28T19:04:25.891Z,-0.89
2019-03-28T19:06:58.043Z,-0.95
2019-03-28T19:09:28.504Z,-0.97
2019-03-28T19:12:00.281Z,-0.99
2019-03-28T19:14:31.715Z,-0.96
2019-03-28T19:17:02.874Z,-0.93
2019-03-28T19:19:39.255Z,-1.05
2019-03-28T19:22:06.693Z,-0.99
2019-03-28T19:24:37.339Z,-1.07
2019-03-28T19:27:07.975Z,-1.01
2019-03-28T19:29:38.830Z,-0.98
2019-03-28T19:32:12.127Z,-1.02
2019-03-28T19:34:43.022Z,-1.04
2019-03-28T19:37:14.074Z,-1.04
2019-03-28T19:39:44.724Z,-1.05
2019-03-28T19:42:15.581Z,-1.08
2019-03-28T19:44:46.334Z,-1.22
2019-03-28T19:47:16.867Z,-1.33
2019-03-28T19:49:46.830Z,-1.40
2019-03-28T19:52:17.461Z,-1.40
2019-03-28T19:54:47.214Z,-1.41
2019-03-28T19:57:17.735Z,-1.42
2019-03-28T19:59:49.529Z,-1.42
2019-03-28T20:02:20.589Z,-1.41
2019-03-28T20:04:51.239Z,-1.43
2019-03-28T20:07:23.739Z,-1.52
2019-03-28T20:09:57.190Z,-1.61
2019-03-28T20:12:26.775Z,-1.70
2019-03-28T20:15:00.052Z,-1.72
2019-03-28T20:17:30.720Z,-1.67
2019-03-28T20:20:01.372Z,-1.65
2019-03-28T20:22:31.241Z,-1.76
2019-03-28T20:25:02.696Z,-1.78
2019-03-28T20:27:33.534Z,-1.73
2019-03-28T20:30:06.449Z,-1.80
2019-03-28T20:32:37.795Z,-1.82
2019-03-28T20:35:10.483Z,-1.87
2019-03-28T20:37:40.653Z,-1.86
2019-03-28T20:40:11.288Z,-1.91
2019-03-28T20:42:42.058Z,-1.88
2019-03-28T20:45:12.707Z,-1.92
2019-03-28T20:47:43.566Z,-1.88
2019-03-28T20:50:14.421Z,-1.93
2019-03-28T20:52:44.774Z,-1.98
2019-03-28T20:55:14.925Z,-2.04
2019-03-28T20:57:45.456Z,-2.00
2019-03-28T21:00:20.400Z,-2.09
2019-03-28T21:02:51.158Z,-2.15
2019-03-28T21:05:21.910Z,-2.11
2019-03-28T21:07:52.764Z,-2.13
2019-03-28T21:10:24.635Z,-2.11
2019-03-28T21:12:57.855Z,-2.16
2019-03-28T21:15:28.708Z,-2.13
2019-03-28T21:17:59.616Z,-2.24
2019-03-28T21:20:31.324Z,-2.26
2019-03-28T21:23:05.014Z,-2.15
2019-03-28T21:25:34.179Z,-2.24
2019-03-28T21:28:04.710Z,-2.21
2019-03-28T21:30:46.497Z,-2.26
2019-03-28T21:33:07.955Z,-2.32
2019-03-28T21:35:39.184Z,-2.29
2019-03-28T21:38:10.090Z,-2.31
2019-03-28T21:40:40.849Z,-2.38
2019-03-28T21:43:11.502Z,-2.43
2019-03-28T21:45:42.143Z,-2.43
2019-03-28T21:48:13.009Z,-2.45
2019-03-28T21:50:43.759Z,-2.52
2019-03-28T21:53:14.295Z,-2.64
2019-03-28T21:55:55.009Z,-2.64
2019-03-28T21:58:17.440Z,-2.59
2019-03-28T22:00:48.208Z,-2.58
2019-03-28T22:03:18.740Z,-2.64
2019-03-28T22:05:49.495Z,-2.60
2019-03-28T22:08:20.366Z,-2.58
2019-03-28T22:10:51.123Z,-2.62
2019-03-28T22:13:22.061Z,-2.59
2019-03-28T22:15:52.922Z,-2.65
2019-03-28T22:18:23.574Z,-2.67
2019-03-28T22:20:54.250Z,-2.56
2019-03-28T22:23:25.097Z,-2.60
2019-03-28T22:25:55.850Z,-2.61
2019-03-28T22:28:26.601Z,-2.54
2019-03-28T22:30:57.236Z,-2.60
2019-03-28T22:33:28.110Z,-2.68
2019-03-28T22:35:58.862Z,-2.65
2019-03-28T22:38:29.617Z,-2.51
2019-03-28T22:41:00.269Z,-2.53
2019-03-28T22:43:31.126Z,-2.49
2019-03-28T22:46:01.881Z,-2.41
2019-03-28T22:48:32.633Z,-2.47
2019-03-28T22:51:03.491Z,-2.44
2019-03-28T22:53:34.344Z,-2.45
2019-03-28T22:56:05.082Z,-2.50
2019-03-28T22:58:35.750Z,-2.52
2019-03-28T23:01:07.875Z,-2.64
2019-03-28T23:03:38.282Z,-2.68
2019-03-28T23:06:09.137Z,-2.61
2019-03-28T23:08:39.888Z,-2.59
2019-03-28T23:11:10.542Z,-2.59
2019-03-28T23:13:41.397Z,-2.69
2019-03-28T23:16:12.134Z,-2.76
2019-03-28T23:18:42.905Z,-2.81
2019-03-28T23:21:13.748Z,-2.80
2019-03-28T23:23:46.151Z,-2.78
2019-03-28T23:26:16.902Z,-2.92
2019-03-28T23:28:47.555Z,-2.95
2019-03-28T23:31:18.394Z,-2.97
2019-03-28T23:33:49.164Z,-3.02
2019-03-28T23:36:19.830Z,-3.00
2019-03-28T23:38:50.471Z,-3.06
2019-03-28T23:41:21.849Z,-3.12
2019-03-28T23:43:52.590Z,-3.21
2019-03-28T23:46:23.447Z,-3.24
2019-03-28T23:48:54.188Z,-3.26
2019-03-28T23:51:25.092Z,-3.31
2019-03-28T23:53:55.809Z,-3.23
2019-03-28T23:56:26.650Z,-3.32
2019-03-28T23:58:57.301Z,-3.29
